Time;durP1;ratioP1;P1;durP2;ratioP2;P2;SDS_P1;SDS_P2;PMS_P1;PMS_P2;Temp;Humidity;BMP_temperature;BMP_pressure;BME280_temperature;BME280_humidity;BME280_pressure;Samples;Min_cycle;Max_cycle;Signal;HPM_P1;HPM_P2
2024/03/10 00:01:56;;;;;;;55.17;30.73;;;4.20;99.90;;;;;;4974257;28;20078;-80
2024/03/10 00:04:22;;;;;;;52.35;28.67;;;4.20;99.90;;;;;;4974586;28;20026;-81
2024/03/10 00:06:48;;;;;;;55.35;29.25;;;4.20;99.90;;;;;;4976013;28;20102;-81
2024/03/10 00:09:13;;;;;;;62.83;32.35;;;4.20;99.90;;;;;;4974114;28;20114;-81
2024/03/10 00:11:42;;;;;;;54.10;27.75;;;4.20;99.90;;;;;;4973608;28;20185;-81
2024/03/10 00:14:08;;;;;;;54.97;29.77;;;4.20;99.90;;;;;;4973797;28;20410;-81
2024/03/10 00:16:33;;;;;;;62.03;32.45;;;4.20;99.90;;;;;;4973769;28;20027;-81
2024/03/10 00:19:00;;;;;;;56.10;29.13;;;4.20;99.90;;;;;;4973681;28;20027;-80
2024/03/10 00:21:25;;;;;;;53.30;30.17;;;4.20;99.90;;;;;;4973364;28;20951;-80
2024/03/10 00:23:51;;;;;;;56.08;30.98;;;4.10;99.90;;;;;;4973603;28;20030;-80
2024/03/10 00:26:17;;;;;;;58.78;30.98;;;4.10;99.90;;;;;;4975192;28;20022;-81
2024/03/10 00:28:43;;;;;;;54.45;29.00;;;4.10;99.90;;;;;;4974811;28;20101;-80
2024/03/10 00:31:09;;;;;;;53.92;29.00;;;4.10;99.90;;;;;;4973555;28;20078;-81
2024/03/10 00:33:38;;;;;;;55.83;31.77;;;4.00;99.90;;;;;;4973310;28;20023;-81
2024/03/10 00:36:05;;;;;;;61.75;31.70;;;4.00;99.90;;;;;;4973496;28;20027;-81
2024/03/10 00:38:31;;;;;;;60.40;31.50;;;4.10;99.90;;;;;;4974809;28;20414;-80
2024/03/10 00:40:57;;;;;;;57.63;31.73;;;4.00;99.90;;;;;;4972997;28;20031;-81
2024/03/10 00:43:22;;;;;;;57.63;30.92;;;4.00;99.90;;;;;;4974659;28;20027;-81
2024/03/10 00:45:51;;;;;;;61.40;31.77;;;4.00;99.90;;;;;;4973196;28;20058;-81
2024/03/10 00:48:19;;;;;;;59.63;32.17;;;3.90;99.90;;;;;;4972628;28;20045;-81
2024/03/10 00:50:48;;;;;;;54.78;30.27;;;3.90;99.90;;;;;;4972608;28;20062;-80
2024/03/10 00:53:14;;;;;;;63.70;32.25;;;3.90;99.90;;;;;;4974207;28;20030;-80
2024/03/10 00:55:42;;;;;;;64.18;33.88;;;3.90;99.90;;;;;;4972726;28;20042;-80
2024/03/10 00:58:08;;;;;;;61.97;32.97;;;3.80;99.90;;;;;;4972780;28;20034;-81
2024/03/10 01:00:34;;;;;;;64.18;33.50;;;3.80;99.90;;;;;;4973694;28;20247;-80
2024/03/10 01:03:01;;;;;;;62.60;33.55;;;3.90;99.90;;;;;;4972903;28;20023;-80
2024/03/10 01:05:26;;;;;;;57.25;30.27;;;3.90;99.90;;;;;;4972392;28;20451;-80
2024/03/10 01:07:52;;;;;;;61.85;33.15;;;3.80;99.90;;;;;;4972592;28;20031;-80
2024/03/10 01:10:18;;;;;;;66.13;33.42;;;3.80;99.90;;;;;;4972537;28;20027;-80
2024/03/10 01:12:43;;;;;;;62.30;31.45;;;3.80;99.90;;;;;;4972377;28;20082;-81
2024/03/10 01:15:10;;;;;;;59.40;32.30;;;3.80;99.90;;;;;;4972461;28;20089;-80
2024/03/10 01:17:35;;;;;;;67.57;35.13;;;3.70;99.90;;;;;;4972377;28;20530;-80
2024/03/10 01:20:02;;;;;;;66.65;35.42;;;3.80;99.90;;;;;;4973853;28;20110;-81
2024/03/10 01:22:27;;;;;;;64.50;33.47;;;3.70;99.90;;;;;;4972490;28;20039;-81
2024/03/10 01:24:54;;;;;;;68.80;34.92;;;3.70;99.90;;;;;;4972421;28;20030;-81
2024/03/10 01:27:20;;;;;;;70.85;34.55;;;3.70;99.90;;;;;;4972458;28;20050;-81
2024/03/10 01:29:46;;;;;;;65.47;33.53;;;3.70;99.90;;;;;;4972157;28;20054;-81
2024/03/10 01:32:12;;;;;;;61.75;33.50;;;3.70;99.90;;;;;;4973632;28;20058;-80
2024/03/10 01:34:37;;;;;;;67.65;35.42;;;3.70;99.90;;;;;;4972201;28;20030;-81
2024/03/10 01:37:03;;;;;;;65.57;35.63;;;3.70;99.90;;;;;;4972238;28;20371;-81
2024/03/10 01:39:28;;;;;;;74.60;35.95;;;3.70;99.90;;;;;;4971917;28;20023;-80
2024/03/10 01:41:56;;;;;;;65.10;34.58;;;3.70;99.90;;;;;;4971912;28;20261;-80
2024/03/10 01:44:21;;;;;;;75.18;36.92;;;3.70;99.90;;;;;;4971864;28;20046;-81
2024/03/10 01:46:48;;;;;;;69.50;36.78;;;3.70;99.90;;;;;;4972025;28;20027;-80
2024/03/10 01:49:14;;;;;;;69.13;35.95;;;3.60;99.90;;;;;;4972297;28;20168;-81
2024/03/10 01:51:41;;;;;;;64.78;34.33;;;3.60;99.90;;;;;;4971590;28;20022;-80
2024/03/10 01:54:10;;;;;;;66.97;34.63;;;3.60;99.90;;;;;;4972053;28;20041;-80
2024/03/10 01:56:37;;;;;;;69.07;36.45;;;3.60;99.90;;;;;;4971773;28;20177;-80
2024/03/10 01:59:04;;;;;;;78.78;37.90;;;3.60;99.90;;;;;;4971535;28;20034;-80
2024/03/10 02:01:32;;;;;;;70.68;35.22;;;3.60;99.90;;;;;;4972807;28;20033;-80
2024/03/10 02:03:58;;;;;;;70.90;37.13;;;3.60;99.90;;;;;;4971512;28;20026;-80
2024/03/10 02:06:25;;;;;;;66.78;36.55;;;3.50;99.90;;;;;;4971649;28;20089;-81
2024/03/10 02:08:51;;;;;;;73.90;38.33;;;3.50;99.90;;;;;;4972738;28;20023;-80
2024/03/10 02:11:20;;;;;;;77.45;38.25;;;3.50;99.90;;;;;;4972642;28;20027;-80
2024/03/10 02:13:45;;;;;;;72.00;36.35;;;3.50;99.90;;;;;;4971538;28;20027;-80
2024/03/10 02:16:11;;;;;;;73.05;37.33;;;3.50;99.90;;;;;;4970788;28;20533;-81
2024/03/10 02:18:38;;;;;;;75.40;37.90;;;3.50;99.90;;;;;;4971461;28;20042;-80
2024/03/10 02:21:04;;;;;;;71.53;35.25;;;3.50;99.90;;;;;;4971185;28;20027;-80
2024/03/10 02:23:42;;;;;;;70.97;36.25;;;3.50;99.90;;;;;;4972577;28;20035;-80
2024/03/10 02:26:09;;;;;;;73.28;37.20;;;3.40;99.90;;;;;;4971411;28;20521;-80
2024/03/10 02:47:44;;;;;;;75.00;36.88;;;3.30;99.90;;;;;;4972733;28;20405;-81
2024/03/10 02:50:10;;;;;;;77.57;36.72;;;3.30;99.90;;;;;;4971215;28;20052;-81
2024/03/10 02:52:35;;;;;;;81.82;39.67;;;3.30;99.90;;;;;;4971137;28;20027;-81
2024/03/10 02:55:02;;;;;;;78.20;37.97;;;3.30;99.90;;;;;;4971066;28;20026;-81
2024/03/10 02:57:33;;;;;;;75.50;38.15;;;3.30;99.90;;;;;;4970824;28;20440;-81
2024/03/10 02:59:58;;;;;;;76.80;38.63;;;3.30;99.90;;;;;;4970274;28;20031;-83
2024/03/10 03:02:25;;;;;;;78.22;38.25;;;3.30;99.90;;;;;;4969966;28;20085;-83
2024/03/10 03:04:51;;;;;;;72.25;36.58;;;3.30;99.90;;;;;;4971995;28;20359;-82
2024/03/10 03:07:18;;;;;;;78.32;39.80;;;3.30;99.90;;;;;;4970563;28;20461;-83
2024/03/10 03:09:47;;;;;;;80.45;39.92;;;3.20;99.90;;;;;;4975576;28;20061;-83
2024/03/10 03:12:13;;;;;;;77.55;38.08;;;3.20;99.90;;;;;;4970472;28;20474;-83
2024/03/10 03:14:39;;;;;;;71.63;37.05;;;3.30;99.90;;;;;;4970159;28;20035;-83
2024/03/10 03:17:05;;;;;;;73.85;37.72;;;3.20;99.90;;;;;;4971648;28;20023;-83
2024/03/10 03:19:32;;;;;;;76.57;37.38;;;3.20;99.90;;;;;;4970116;28;20121;-83
2024/03/10 03:22:00;;;;;;;75.88;39.20;;;3.20;99.90;;;;;;4970275;28;20039;-83
2024/03/10 03:24:25;;;;;;;81.60;37.55;;;3.20;99.90;;;;;;4969783;28;20401;-83
2024/03/10 03:26:53;;;;;;;78.70;39.33;;;3.20;99.90;;;;;;4970885;28;20027;-83
2024/03/10 03:29:19;;;;;;;77.75;38.58;;;3.10;99.90;;;;;;4973956;28;20019;-83
2024/03/10 03:31:45;;;;;;;71.05;34.90;;;3.10;99.90;;;;;;4973919;28;20363;-83
2024/03/10 03:34:11;;;;;;;75.05;38.67;;;3.00;99.90;;;;;;4973152;28;20034;-83
2024/03/10 03:36:37;;;;;;;81.82;39.72;;;3.00;99.90;;;;;;4973555;28;20045;-83
2024/03/10 03:39:05;;;;;;;79.30;40.47;;;3.00;99.90;;;;;;4973844;28;20031;-84
2024/03/10 03:41:31;;;;;;;79.72;39.13;;;3.00;99.90;;;;;;4973628;28;20027;-83
2024/03/10 03:43:57;;;;;;;75.95;37.47;;;3.00;99.90;;;;;;4975011;28;20031;-83
2024/03/10 03:46:22;;;;;;;74.10;37.45;;;3.00;99.90;;;;;;4974020;28;20069;-83
2024/03/10 03:48:49;;;;;;;80.60;39.65;;;2.90;99.90;;;;;;4974003;28;20022;-83
2024/03/10 03:51:16;;;;;;;74.38;37.00;;;3.00;99.90;;;;;;4973782;28;20486;-83
2024/03/10 03:53:44;;;;;;;76.70;40.35;;;2.90;99.90;;;;;;4973887;28;20132;-83
2024/03/10 03:56:10;;;;;;;80.88;40.33;;;2.90;99.90;;;;;;4973924;28;20027;-83
2024/03/10 03:58:36;;;;;;;87.03;41.75;;;2.90;99.90;;;;;;4974928;28;20022;-83
2024/03/10 04:01:04;;;;;;;77.85;39.10;;;2.90;99.90;;;;;;4976092;28;20098;-83
2024/03/10 04:03:29;;;;;;;72.32;37.22;;;2.80;99.90;;;;;;4976527;28;20029;-83
2024/03/10 04:05:55;;;;;;;78.43;39.17;;;2.80;99.90;;;;;;4974236;28;20401;-83
2024/03/10 04:08:21;;;;;;;81.75;40.88;;;2.80;99.90;;;;;;4974308;28;20027;-82
2024/03/10 04:10:47;;;;;;;78.15;37.92;;;2.80;99.90;;;;;;4974836;28;20023;-83
2024/03/10 04:13:13;;;;;;;79.20;39.95;;;2.80;99.90;;;;;;4975370;28;20172;-82
2024/03/10 04:15:39;;;;;;;81.93;39.92;;;2.80;99.90;;;;;;4975211;28;20070;-82
2024/03/10 04:18:05;;;;;;;82.18;39.88;;;2.70;99.90;;;;;;4986600;28;20022;-82
2024/03/10 04:20:35;;;;;;;90.43;41.67;;;2.70;99.90;;;;;;4990755;28;20023;-82
2024/03/10 04:23:02;;;;;;;84.47;40.85;;;2.70;99.90;;;;;;4980389;28;20118;-82
2024/03/10 04:25:29;;;;;;;81.93;38.25;;;2.70;99.90;;;;;;4984130;28;20066;-81
2024/03/10 04:27:55;;;;;;;80.47;39.45;;;2.70;99.90;;;;;;4979522;28;20029;-81
2024/03/10 04:30:22;;;;;;;85.40;41.92;;;2.70;99.90;;;;;;4978864;28;20023;-82
2024/03/10 04:32:48;;;;;;;81.68;40.33;;;2.70;99.90;;;;;;4983782;28;20033;-83
2024/03/10 04:35:15;;;;;;;81.95;39.33;;;2.70;99.90;;;;;;4981721;28;20098;-83
2024/03/10 04:37:40;;;;;;;82.85;40.17;;;2.70;99.90;;;;;;4980171;28;20156;-83
2024/03/10 04:40:09;;;;;;;83.63;39.70;;;2.60;99.90;;;;;;4980403;28;20130;-83
2024/03/10 04:42:34;;;;;;;81.22;38.25;;;2.70;99.90;;;;;;4983392;28;20119;-83
2024/03/10 04:45:00;;;;;;;85.75;42.42;;;2.70;99.90;;;;;;4975733;28;20070;-83
2024/03/10 04:47:26;;;;;;;80.45;40.35;;;2.60;99.90;;;;;;4974362;28;20501;-83
2024/03/10 04:49:52;;;;;;;88.63;42.00;;;2.60;99.90;;;;;;4978729;28;20027;-83
2024/03/10 04:52:17;;;;;;;89.22;41.15;;;2.60;99.90;;;;;;4975843;28;20034;-83
2024/03/10 04:54:45;;;;;;;90.82;42.28;;;2.60;99.90;;;;;;4972764;28;20030;-83
2024/03/10 04:57:11;;;;;;;83.57;42.60;;;2.60;99.90;;;;;;4974053;28;20023;-83
2024/03/10 04:59:36;;;;;;;87.03;44.47;;;2.60;99.90;;;;;;4972342;28;20031;-83
2024/03/10 05:02:02;;;;;;;84.40;40.97;;;2.60;99.90;;;;;;4972290;28;20053;-83
2024/03/10 05:04:27;;;;;;;81.38;41.40;;;2.60;99.90;;;;;;4972116;28;20031;-83
2024/03/10 05:06:53;;;;;;;84.43;41.97;;;2.60;99.90;;;;;;4973623;28;20553;-83
2024/03/10 05:09:18;;;;;;;86.15;40.80;;;2.60;99.90;;;;;;4972333;28;20033;-83
2024/03/10 05:11:44;;;;;;;82.22;40.05;;;2.60;99.90;;;;;;4972301;28;20023;-83
2024/03/10 05:14:10;;;;;;;82.55;39.90;;;2.60;99.90;;;;;;4973358;28;20397;-83
2024/03/10 05:16:35;;;;;;;85.18;40.95;;;2.50;99.90;;;;;;4971944;28;20031;-83
2024/03/10 05:19:01;;;;;;;90.57;40.08;;;2.50;99.90;;;;;;4971876;28;20029;-83
2024/03/10 05:21:26;;;;;;;89.60;44.08;;;2.50;99.90;;;;;;4971687;28;20031;-83
2024/03/10 05:23:53;;;;;;;79.32;39.17;;;2.50;99.90;;;;;;4973087;28;20394;-82
2024/03/10 05:26:19;;;;;;;84.13;40.92;;;2.50;99.90;;;;;;4971765;28;20026;-83
2024/03/10 05:28:45;;;;;;;88.10;41.88;;;2.50;99.90;;;;;;4971831;28;20038;-83
2024/03/10 05:31:30;;;;;;;82.10;39.95;;;2.50;99.90;;;;;;4971512;28;20019;-83
2024/03/10 05:33:59;;;;;;;81.07;41.20;;;2.40;99.90;;;;;;4971655;28;20030;-83
2024/03/10 05:36:28;;;;;;;80.15;38.88;;;2.40;99.90;;;;;;4971590;28;20027;-83
2024/03/10 05:38:54;;;;;;;87.40;42.10;;;2.40;99.90;;;;;;4971406;28;20023;-83
2024/03/10 05:41:20;;;;;;;89.55;42.15;;;2.40;99.90;;;;;;4971179;28;20061;-83
2024/03/10 05:43:47;;;;;;;84.38;41.88;;;2.50;99.90;;;;;;4971688;28;20411;-83
2024/03/10 05:46:12;;;;;;;90.18;44.22;;;2.40;99.90;;;;;;4971734;28;20492;-83
2024/03/10 05:48:41;;;;;;;84.85;42.10;;;2.40;99.90;;;;;;4972837;28;20019;-83
2024/03/10 05:51:11;;;;;;;88.50;42.92;;;2.40;99.90;;;;;;4970486;28;20035;-83
2024/03/10 05:53:37;;;;;;;86.77;42.73;;;2.40;99.90;;;;;;4971483;28;20027;-83
2024/03/10 05:56:03;;;;;;;88.10;41.95;;;2.40;99.90;;;;;;4971407;28;20122;-83
2024/03/10 05:58:32;;;;;;;86.50;42.85;;;2.50;99.90;;;;;;4971376;28;20027;-83
2024/03/10 06:00:57;;;;;;;85.07;42.17;;;2.50;99.90;;;;;;4970623;28;20125;-83
2024/03/10 06:03:23;;;;;;;90.57;43.50;;;2.50;99.90;;;;;;4971329;28;20114;-83
2024/03/10 06:05:48;;;;;;;83.00;41.97;;;2.50;99.90;;;;;;4972813;28;20561;-83
2024/03/10 06:08:14;;;;;;;85.70;42.17;;;2.50;99.90;;;;;;4972108;28;20034;-82
2024/03/10 06:10:40;;;;;;;88.00;41.83;;;2.50;99.90;;;;;;4971761;28;20023;-83
2024/03/10 06:13:06;;;;;;;90.68;42.67;;;2.50;99.90;;;;;;4971538;28;20019;-83
2024/03/10 06:15:32;;;;;;;85.90;42.58;;;2.50;99.90;;;;;;4971650;28;20034;-83
2024/03/10 06:18:15;;;;;;;91.07;44.75;;;2.60;99.90;;;;;;4971529;28;20026;-82
2024/03/10 06:26:12;;;;;;;81.50;39.85;;;2.70;99.90;;;;;;4972710;28;20062;-83
2024/03/10 06:28:40;;;;;;;87.80;41.65;;;2.70;99.90;;;;;;4971225;28;20034;-84
2024/03/10 06:31:06;;;;;;;85.97;41.38;;;2.80;99.90;;;;;;4970863;28;20026;-84
2024/03/10 06:33:35;;;;;;;82.50;41.60;;;2.80;99.90;;;;;;4970773;28;20026;-83
2024/03/10 06:36:04;;;;;;;85.07;41.72;;;2.90;99.90;;;;;;4970556;28;20035;-83
2024/03/10 06:38:29;;;;;;;79.80;40.65;;;2.90;99.90;;;;;;4971021;28;20031;-84
2024/03/10 06:40:55;;;;;;;78.05;39.33;;;3.00;99.90;;;;;;4971260;28;20086;-83
2024/03/10 06:43:21;;;;;;;77.35;39.95;;;3.00;99.90;;;;;;4971281;28;20466;-83
2024/03/10 06:45:47;;;;;;;89.43;44.13;;;3.10;99.90;;;;;;4972280;28;20031;-84
2024/03/10 06:48:13;;;;;;;79.68;41.63;;;3.10;99.90;;;;;;4970797;28;20031;-84
2024/03/10 06:50:39;;;;;;;75.93;38.95;;;3.20;99.90;;;;;;4971966;28;20061;-84
2024/03/10 06:53:05;;;;;;;86.45;41.88;;;3.20;99.90;;;;;;4986967;28;20046;-84
2024/03/10 06:55:30;;;;;;;81.95;42.05;;;3.30;99.90;;;;;;4970399;28;20553;-84
2024/03/10 06:57:56;;;;;;;79.10;40.20;;;3.40;99.90;;;;;;4970553;28;20677;-83
2024/03/10 07:00:24;;;;;;;77.10;39.05;;;3.40;99.90;;;;;;4970160;28;20022;-83
2024/03/10 07:02:50;;;;;;;75.45;38.90;;;3.40;99.90;;;;;;4971736;28;20042;-83
2024/03/10 07:05:15;;;;;;;75.10;40.08;;;3.50;99.90;;;;;;4971172;28;20031;-82
2024/03/10 07:07:41;;;;;;;78.68;41.65;;;3.50;99.90;;;;;;4971290;28;20031;-82
2024/03/10 07:10:09;;;;;;;78.07;40.00;;;3.50;99.90;;;;;;4970909;28;20049;-84
2024/03/10 07:12:35;;;;;;;78.85;40.88;;;3.60;99.90;;;;;;4970930;28;20037;-84
2024/03/10 07:15:01;;;;;;;76.75;38.67;;;3.60;99.90;;;;;;4970526;28;20023;-84
2024/03/10 07:17:27;;;;;;;74.60;40.33;;;3.70;99.90;;;;;;4974401;28;20034;-83
2024/03/10 07:19:52;;;;;;;77.32;40.83;;;3.70;99.90;;;;;;4970146;28;20027;-83
2024/03/10 07:22:18;;;;;;;76.78;38.53;;;3.80;99.90;;;;;;4969956;28;20045;-84
2024/03/10 07:24:44;;;;;;;79.05;41.03;;;3.90;99.90;;;;;;4971520;28;20023;-85
2024/03/10 07:27:10;;;;;;;72.82;39.55;;;3.90;99.90;;;;;;4970145;28;20114;-83
2024/03/10 07:29:36;;;;;;;74.00;38.50;;;4.00;99.90;;;;;;4969859;28;20023;-84
2024/03/10 07:32:01;;;;;;;72.43;37.33;;;4.10;99.90;;;;;;4986540;28;20482;-83
2024/03/10 07:34:28;;;;;;;71.43;37.80;;;4.20;99.90;;;;;;4969498;28;20152;-83
2024/03/10 07:36:54;;;;;;;71.20;38.22;;;4.30;99.90;;;;;;4969681;28;20031;-82
2024/03/10 07:39:21;;;;;;;71.32;38.70;;;4.40;99.90;;;;;;4971308;28;20038;-82
2024/03/10 07:41:47;;;;;;;71.50;39.30;;;4.50;99.90;;;;;;4970056;28;20035;-83
2024/03/10 07:44:12;;;;;;;72.05;38.10;;;4.50;99.90;;;;;;4969947;28;20101;-83
2024/03/10 07:46:38;;;;;;;69.25;37.97;;;4.60;99.90;;;;;;4971558;28;20022;-84
2024/03/10 07:49:06;;;;;;;75.60;38.10;;;4.70;99.90;;;;;;4970565;28;20019;-82
2024/03/10 07:51:31;;;;;;;61.35;35.72;;;4.80;99.90;;;;;;4970756;28;20031;-82
2024/03/10 07:54:01;;;;;;;64.35;35.75;;;4.90;99.90;;;;;;4971197;28;20131;-82
2024/03/10 07:56:27;;;;;;;62.80;36.47;;;5.00;99.90;;;;;;4971200;28;20443;-82
2024/03/10 07:58:54;;;;;;;66.95;36.80;;;5.10;99.90;;;;;;4972509;28;20466;-82
2024/03/10 08:01:20;;;;;;;61.00;36.85;;;5.30;99.90;;;;;;4971154;28;20027;-82
2024/03/10 08:03:45;;;;;;;62.50;34.97;;;5.30;99.90;;;;;;4971151;28;20066;-82
2024/03/10 08:06:11;;;;;;;60.45;35.42;;;5.40;99.90;;;;;;4971102;28;20047;-82
2024/03/10 08:08:36;;;;;;;60.22;33.85;;;5.50;99.90;;;;;;4970681;28;20057;-82
2024/03/10 08:11:03;;;;;;;59.40;34.78;;;5.70;99.90;;;;;;4970596;28;20469;-82
2024/03/10 08:13:32;;;;;;;55.97;33.25;;;5.80;99.90;;;;;;4970469;28;20346;-81
2024/03/10 08:16:03;;;;;;;59.20;33.97;;;5.90;99.90;;;;;;4973397;28;20126;-81
2024/03/10 08:18:28;;;;;;;57.22;33.30;;;6.00;99.90;;;;;;4971367;28;20062;-81
2024/03/10 08:20:54;;;;;;;60.20;35.30;;;6.10;99.90;;;;;;4973133;28;20051;-81
2024/03/10 08:23:20;;;;;;;55.55;33.92;;;6.20;99.90;;;;;;4973551;28;20673;-81
2024/03/10 08:25:48;;;;;;;55.70;33.05;;;6.30;99.90;;;;;;4969272;28;20568;-80
2024/03/10 08:28:14;;;;;;;53.72;33.03;;;6.40;99.90;;;;;;4958514;28;20035;-81
2024/03/10 08:30:40;;;;;;;58.25;32.88;;;6.50;99.90;;;;;;4954473;29;20102;-81
2024/03/10 08:33:06;;;;;;;54.78;32.75;;;6.60;99.90;;;;;;4955208;29;20028;-80
2024/03/10 08:35:31;;;;;;;55.72;33.38;;;6.70;99.90;;;;;;4953386;28;20070;-80
2024/03/10 08:37:57;;;;;;;53.80;33.70;;;6.80;99.90;;;;;;4954843;29;20027;-82
2024/03/10 08:40:23;;;;;;;52.58;31.95;;;6.90;99.90;;;;;;4952963;29;20509;-84
2024/03/10 08:42:48;;;;;;;52.05;32.28;;;7.00;99.90;;;;;;4954845;28;20031;-84
2024/03/10 08:45:14;;;;;;;55.88;32.15;;;7.10;99.90;;;;;;4972910;28;20423;-84
2024/03/10 08:47:47;;;;;;;51.42;32.83;;;7.20;99.90;;;;;;4972681;28;20085;-84
2024/03/10 08:50:16;;;;;;;53.88;33.42;;;7.30;99.90;;;;;;4970936;28;20500;-84
2024/03/10 08:52:43;;;;;;;51.17;32.05;;;7.40;99.90;;;;;;4976454;28;20525;-84
2024/03/10 08:55:13;;;;;;;49.67;31.17;;;7.60;99.90;;;;;;4983930;28;20022;-84
2024/03/10 08:57:39;;;;;;;49.67;30.30;;;7.70;99.90;;;;;;4973465;28;20030;-80
2024/03/10 09:00:13;;;;;;;48.00;29.92;;;7.90;99.90;;;;;;4972283;28;20023;-80
2024/03/10 09:02:40;;;;;;;49.75;29.70;;;8.00;99.90;;;;;;4977018;28;20018;-80
2024/03/10 09:05:12;;;;;;;50.42;30.13;;;8.20;99.90;;;;;;4976427;28;20046;-79
2024/03/10 09:07:42;;;;;;;45.92;29.25;;;8.40;99.90;;;;;;4972206;28;20553;-79
2024/03/10 09:10:09;;;;;;;45.90;28.63;;;8.50;99.90;;;;;;4979284;28;20055;-80
2024/03/10 09:12:34;;;;;;;48.45;30.88;;;8.80;99.90;;;;;;4981243;28;20161;-80
2024/03/10 09:15:01;;;;;;;44.97;28.17;;;9.10;99.90;;;;;;4973003;28;20030;-80
2024/03/10 09:17:26;;;;;;;42.72;27.25;;;9.60;99.90;;;;;;4971532;28;20402;-80
2024/03/10 09:19:52;;;;;;;41.03;28.02;;;10.40;99.90;;;;;;4971548;28;20086;-80
2024/03/10 09:22:19;;;;;;;40.55;26.65;;;11.10;99.90;;;;;;4979404;28;20043;-80
2024/03/10 09:24:46;;;;;;;35.30;25.92;;;11.70;99.90;;;;;;4970793;28;20437;-80
2024/03/10 09:27:13;;;;;;;35.97;24.80;;;11.90;99.90;;;;;;4972653;28;20019;-80
2024/03/10 09:29:38;;;;;;;35.03;25.05;;;12.10;99.90;;;;;;4972487;28;20051;-80
2024/03/10 09:32:06;;;;;;;34.33;25.20;;;12.20;99.90;;;;;;4973099;28;20058;-80
2024/03/10 09:34:32;;;;;;;36.10;25.52;;;12.40;99.90;;;;;;4971609;28;20019;-80
2024/03/10 09:36:57;;;;;;;37.60;26.17;;;12.30;99.90;;;;;;4973066;28;20039;-80
2024/03/10 09:39:23;;;;;;;36.45;26.08;;;12.10;99.90;;;;;;4972855;28;20180;-84
2024/03/10 09:41:51;;;;;;;30.85;23.95;;;11.90;99.90;;;;;;4972827;28;20393;-84
2024/03/10 09:44:18;;;;;;;30.77;23.60;;;12.00;99.90;;;;;;4972910;28;20030;-84
2024/03/10 09:46:51;;;;;;;36.30;25.02;;;11.90;99.90;;;;;;4971771;28;20022;-84
2024/03/10 09:49:18;;;;;;;39.33;26.42;;;11.70;99.90;;;;;;4971695;28;20474;-84
2024/03/10 09:51:50;;;;;;;37.20;26.33;;;11.60;99.90;;;;;;4971223;28;20027;-84
2024/03/10 09:54:17;;;;;;;36.17;23.63;;;11.60;99.90;;;;;;4971497;28;20398;-84
2024/03/10 09:56:45;;;;;;;37.42;26.27;;;11.50;99.90;;;;;;4972763;28;20092;-84
2024/03/10 09:59:36;;;;;;;36.92;25.33;;;11.50;99.90;;;;;;4987906;28;20023;-84
2024/03/10 10:02:05;;;;;;;39.40;26.05;;;11.50;99.90;;;;;;4972815;28;20410;-84
2024/03/10 10:04:40;;;;;;;38.23;25.43;;;11.30;99.90;;;;;;4972766;28;20031;-84
2024/03/10 10:07:08;;;;;;;37.33;24.75;;;11.20;99.90;;;;;;4971597;28;20270;-84
2024/03/10 10:09:36;;;;;;;35.67;24.38;;;11.10;99.90;;;;;;4972838;28;20042;-84
2024/03/10 10:12:02;;;;;;;37.63;23.65;;;11.10;99.90;;;;;;4971357;28;20521;-84
2024/03/10 10:14:29;;;;;;;34.10;24.95;;;11.10;99.90;;;;;;4971405;28;20042;-84
2024/03/10 10:16:56;;;;;;;36.78;25.20;;;11.00;99.90;;;;;;4971358;28;20055;-84
2024/03/10 10:19:25;;;;;;;39.47;27.08;;;11.00;99.90;;;;;;4971437;28;20041;-84
2024/03/10 10:21:54;;;;;;;39.50;26.00;;;11.10;99.90;;;;;;4970848;28;20479;-84
2024/03/10 10:24:20;;;;;;;39.97;26.77;;;11.10;99.90;;;;;;4987397;28;20122;-84
2024/03/10 10:27:02;;;;;;;40.05;26.95;;;11.10;99.90;;;;;;4972511;28;20046;-84
2024/03/10 10:29:28;;;;;;;40.42;26.60;;;11.20;99.90;;;;;;4970718;28;20022;-80
2024/03/10 10:32:06;;;;;;;36.80;25.48;;;11.20;99.90;;;;;;4970914;28;20023;-80
2024/03/10 10:34:33;;;;;;;35.50;25.25;;;11.30;99.90;;;;;;4970741;28;20180;-80
2024/03/10 10:37:01;;;;;;;39.20;26.02;;;11.20;99.90;;;;;;4971670;28;20034;-80
2024/03/10 10:39:28;;;;;;;36.30;24.85;;;11.20;99.90;;;;;;4971917;28;20030;-84
2024/03/10 10:41:55;;;;;;;40.65;26.77;;;11.30;99.90;;;;;;4973472;28;20697;-83
2024/03/10 10:44:22;;;;;;;40.17;27.20;;;11.20;99.90;;;;;;4991277;28;20038;-84
2024/03/10 10:46:50;;;;;;;38.13;25.67;;;11.10;99.90;;;;;;4972583;28;20033;-83
2024/03/10 10:49:17;;;;;;;34.33;24.63;;;11.10;99.90;;;;;;4972463;28;20114;-84
2024/03/10 10:51:50;;;;;;;37.38;25.60;;;11.20;99.90;;;;;;4973899;28;20022;-84
2024/03/10 10:54:19;;;;;;;36.50;25.27;;;11.20;99.90;;;;;;4972778;28;20023;-84
2024/03/10 10:56:55;;;;;;;36.58;24.92;;;11.20;99.90;;;;;;4972565;28;20085;-84
2024/03/10 10:59:25;;;;;;;39.85;26.73;;;11.40;99.90;;;;;;4973659;28;20367;-80
2024/03/10 11:01:56;;;;;;;39.95;27.10;;;11.50;99.90;;;;;;4972207;28;20089;-80
2024/03/10 11:04:25;;;;;;;39.60;27.50;;;11.70;99.90;;;;;;4973672;28;20122;-79
2024/03/10 11:06:55;;;;;;;38.10;25.75;;;11.80;99.90;;;;;;4974316;28;20026;-79
2024/03/10 11:09:30;;;;;;;36.80;26.25;;;11.80;99.90;;;;;;4980031;28;20165;-79
2024/03/10 11:11:57;;;;;;;40.63;26.83;;;11.80;99.90;;;;;;4974835;28;20015;-80
2024/03/10 11:14:27;;;;;;;36.88;26.65;;;11.80;99.90;;;;;;4972329;28;20033;-79
2024/03/10 11:17:15;;;;;;;35.60;25.65;;;11.70;99.90;;;;;;4974193;28;20105;-80
2024/03/10 11:19:47;;;;;;;40.22;27.27;;;11.60;99.90;;;;;;4972346;28;20041;-80
2024/03/10 11:22:12;;;;;;;42.58;26.73;;;11.70;99.90;;;;;;4973334;28;20037;-80
2024/03/10 11:24:39;;;;;;;45.25;28.65;;;11.50;99.90;;;;;;4973250;28;20027;-80
2024/03/10 11:27:18;;;;;;;42.40;26.42;;;11.70;99.90;;;;;;4973546;28;20018;-80
2024/03/10 11:29:44;;;;;;;40.92;27.38;;;12.00;99.90;;;;;;4972590;28;20166;-80
2024/03/10 11:32:33;;;;;;;33.50;24.60;;;12.40;99.90;;;;;;4988783;28;20063;-81
2024/03/10 11:35:09;;;;;;;35.55;24.33;;;13.10;99.90;;;;;;4971566;28;20089;-80
2024/03/10 11:37:38;;;;;;;34.63;24.65;;;14.40;99.90;;;;;;4967949;28;20030;-80
2024/03/10 11:40:05;;;;;;;31.55;22.08;;;15.50;97.70;;;;;;4972263;28;20038;-80
2024/03/10 11:42:31;;;;;;;32.90;23.42;;;16.20;96.60;;;;;;4971993;28;20031;-81
2024/03/10 11:44:58;;;;;;;34.33;24.92;;;17.20;94.20;;;;;;4972503;28;20058;-81
2024/03/10 11:47:24;;;;;;;29.50;21.48;;;17.40;91.80;;;;;;4972060;28;20114;-82
2024/03/10 11:49:52;;;;;;;27.50;22.05;;;17.20;92.00;;;;;;4976107;28;20027;-80
2024/03/10 11:52:20;;;;;;;29.55;21.70;;;16.60;92.10;;;;;;4969833;28;20026;-80
2024/03/10 11:54:58;;;;;;;31.40;24.35;;;16.20;92.70;;;;;;4963100;28;20443;-80
2024/03/10 11:57:27;;;;;;;34.65;23.70;;;15.50;93.40;;;;;;4974886;28;20022;-80
2024/03/10 11:59:55;;;;;;;29.80;22.65;;;14.70;94.20;;;;;;4976570;28;20449;-80
2024/03/10 12:02:22;;;;;;;34.45;23.95;;;14.30;95.30;;;;;;4975636;28;20121;-82
2024/03/10 12:04:49;;;;;;;34.75;24.45;;;14.00;95.40;;;;;;4973899;28;20053;-81
2024/03/10 12:07:15;;;;;;;36.35;24.27;;;13.60;96.20;;;;;;4961817;28;20355;-81
2024/03/10 12:09:44;;;;;;;32.80;23.98;;;13.40;97.10;;;;;;4965636;28;20035;-80
2024/03/10 12:12:13;;;;;;;36.75;25.35;;;13.30;97.60;;;;;;4975792;28;20469;-80
2024/03/10 12:14:42;;;;;;;34.40;24.60;;;13.20;98.10;;;;;;4961647;28;20126;-81
2024/03/10 12:17:17;;;;;;;37.55;25.48;;;13.30;97.70;;;;;;4963298;28;20042;-82
2024/03/10 12:19:43;;;;;;;39.30;26.70;;;13.20;98.00;;;;;;4982468;28;20027;-81
2024/03/10 12:22:13;;;;;;;34.95;23.83;;;13.30;98.90;;;;;;4981416;28;20054;-80
2024/03/10 12:24:43;;;;;;;33.60;24.33;;;13.30;98.60;;;;;;4979890;28;20072;-79
2024/03/10 12:27:11;;;;;;;35.47;23.80;;;13.30;98.30;;;;;;4964196;28;20244;-78
2024/03/10 12:29:44;;;;;;;34.70;23.52;;;13.40;98.00;;;;;;4963830;28;20027;-80
2024/03/10 12:32:10;;;;;;;38.15;25.92;;;13.30;98.40;;;;;;4964761;28;20440;-81
2024/03/10 12:34:37;;;;;;;36.75;25.38;;;13.20;98.80;;;;;;4960470;28;20063;-85
2024/03/10 12:37:04;;;;;;;38.58;26.13;;;13.20;99.40;;;;;;5002473;23;20597;-80
2024/03/10 12:39:30;;;;;;;40.30;25.95;;;13.30;98.70;;;;;;4974356;28;20027;-85
2024/03/10 12:41:56;;;;;;;34.55;25.00;;;13.70;98.80;;;;;;4958320;28;20374;-85
2024/03/10 12:44:21;;;;;;;38.33;25.05;;;14.20;98.00;;;;;;4974703;28;20118;-84
2024/03/10 12:46:47;;;;;;;34.03;23.13;;;14.80;96.80;;;;;;4974308;28;20055;-85
2024/03/10 12:49:12;;;;;;;37.50;25.20;;;15.30;96.40;;;;;;4974501;28;20026;-85
2024/03/10 12:51:38;;;;;;;35.38;24.92;;;15.50;94.70;;;;;;4974289;28;20479;-86
2024/03/10 12:54:05;;;;;;;34.65;25.45;;;15.80;94.80;;;;;;4992539;28;20007;-85
2024/03/10 12:56:30;;;;;;;34.85;25.90;;;15.90;94.90;;;;;;4990845;28;20087;-86
2024/03/10 12:58:56;;;;;;;35.75;24.88;;;16.00;95.00;;;;;;4996655;28;20513;-84